sensor_id;sensor_type;location;lat;lon;timestamp;P1;durP1;ratioP1;P2;durP2;ratioP2
70757;SDS011;59316;52.964;7.102;2023-07-22T00:05:02;15.20;;;5.35;;
70757;SDS011;59316;52.964;7.102;2023-07-22T00:10:24;13.27;;;5.35;;
70757;SDS011;59316;52.964;7.102;2023-07-22T00:15:46;14.95;;;6.35;;
70757;SDS011;59316;52.964;7.102;2023-07-22T00:21:07;16.88;;;6.28;;
70757;SDS011;59316;52.964;7.102;2023-07-22T00:26:28;12.23;;;5.85;;
70757;SDS011;59316;52.964;7.102;2023-07-22T00:31:50;15.73;;;5.72;;
70757;SDS011;59316;52.964;7.102;2023-07-22T00:37:11;15.48;;;6.32;;
70757;SDS011;59316;52.964;7.102;2023-07-22T00:42:33;16.77;;;5.82;;
70757;SDS011;59316;52.964;7.102;2023-07-22T00:47:54;16.13;;;5.85;;
70757;SDS011;59316;52.964;7.102;2023-07-22T00:53:15;15.25;;;5.60;;
70757;SDS011;59316;52.964;7.102;2023-07-22T00:58:37;15.85;;;5.90;;
70757;SDS011;59316;52.964;7.102;2023-07-22T01:03:59;20.70;;;6.60;;
70757;SDS011;59316;52.964;7.102;2023-07-22T01:09:20;15.60;;;6.05;;
70757;SDS011;59316;52.964;7.102;2023-07-22T01:14:42;24.23;;;7.28;;
70757;SDS011;59316;52.964;7.102;2023-07-22T01:20:04;19.30;;;6.40;;
70757;SDS011;59316;52.964;7.102;2023-07-22T01:25:26;16.88;;;6.22;;
70757;SDS011;59316;52.964;7.102;2023-07-22T01:30:50;19.33;;;6.65;;
70757;SDS011;59316;52.964;7.102;2023-07-22T01:36:13;14.25;;;6.32;;
70757;SDS011;59316;52.964;7.102;2023-07-22T01:41:35;16.25;;;6.32;;
70757;SDS011;59316;52.964;7.102;2023-07-22T01:46:56;19.17;;;6.22;;
70757;SDS011;59316;52.964;7.102;2023-07-22T01:52:22;18.92;;;6.20;;
70757;SDS011;59316;52.964;7.102;2023-07-22T01:57:43;20.83;;;6.57;;
70757;SDS011;59316;52.964;7.102;2023-07-22T02:03:04;22.25;;;7.28;;
70757;SDS011;59316;52.964;7.102;2023-07-22T02:08:26;23.67;;;7.47;;
70757;SDS011;59316;52.964;7.102;2023-07-22T02:13:47;26.90;;;7.38;;
70757;SDS011;59316;52.964;7.102;2023-07-22T02:19:10;21.95;;;7.03;;
70757;SDS011;59316;52.964;7.102;2023-07-22T02:24:34;22.88;;;7.10;;
70757;SDS011;59316;52.964;7.102;2023-07-22T02:29:56;22.42;;;7.85;;
70757;SDS011;59316;52.964;7.102;2023-07-22T02:35:17;20.00;;;6.55;;
70757;SDS011;59316;52.964;7.102;2023-07-22T02:40:39;22.60;;;7.05;;
70757;SDS011;59316;52.964;7.102;2023-07-22T02:46:01;25.48;;;7.65;;
70757;SDS011;59316;52.964;7.102;2023-07-22T02:51:25;20.48;;;7.53;;
70757;SDS011;59316;52.964;7.102;2023-07-22T02:56:46;26.10;;;8.00;;
70757;SDS011;59316;52.964;7.102;2023-07-22T03:02:07;22.60;;;7.88;;
70757;SDS011;59316;52.964;7.102;2023-07-22T03:07:29;22.23;;;7.93;;
70757;SDS011;59316;52.964;7.102;2023-07-22T03:12:51;19.58;;;7.35;;
70757;SDS011;59316;52.964;7.102;2023-07-22T03:18:12;23.80;;;7.60;;
70757;SDS011;59316;52.964;7.102;2023-07-22T03:23:34;23.17;;;7.47;;
70757;SDS011;59316;52.964;7.102;2023-07-22T03:28:55;26.17;;;8.45;;
70757;SDS011;59316;52.964;7.102;2023-07-22T03:34:17;21.02;;;7.25;;
70757;SDS011;59316;52.964;7.102;2023-07-22T03:39:38;21.58;;;7.75;;
70757;SDS011;59316;52.964;7.102;2023-07-22T03:45:00;25.45;;;8.43;;
70757;SDS011;59316;52.964;7.102;2023-07-22T03:50:21;24.45;;;8.35;;
70757;SDS011;59316;52.964;7.102;2023-07-22T03:55:42;29.65;;;9.02;;
70757;SDS011;59316;52.964;7.102;2023-07-22T04:01:04;31.42;;;9.52;;
70757;SDS011;59316;52.964;7.102;2023-07-22T04:06:25;24.65;;;9.20;;
70757;SDS011;59316;52.964;7.102;2023-07-22T04:11:47;33.53;;;9.60;;
70757;SDS011;59316;52.964;7.102;2023-07-22T04:17:09;28.73;;;9.27;;
70757;SDS011;59316;52.964;7.102;2023-07-22T04:22:30;38.08;;;10.63;;
70757;SDS011;59316;52.964;7.102;2023-07-22T04:27:52;35.72;;;9.80;;
70757;SDS011;59316;52.964;7.102;2023-07-22T04:33:14;31.58;;;9.50;;
70757;SDS011;59316;52.964;7.102;2023-07-22T04:38:36;40.08;;;10.30;;
70757;SDS011;59316;52.964;7.102;2023-07-22T04:43:57;37.60;;;11.13;;
70757;SDS011;59316;52.964;7.102;2023-07-22T04:49:19;34.75;;;10.40;;
70757;SDS011;59316;52.964;7.102;2023-07-22T04:54:41;33.55;;;10.88;;
70757;SDS011;59316;52.964;7.102;2023-07-22T05:00:02;36.15;;;10.93;;
70757;SDS011;59316;52.964;7.102;2023-07-22T05:05:25;33.90;;;11.00;;
70757;SDS011;59316;52.964;7.102;2023-07-22T05:10:46;30.58;;;10.95;;
70757;SDS011;59316;52.964;7.102;2023-07-22T05:16:07;36.30;;;11.02;;
70757;SDS011;59316;52.964;7.102;2023-07-22T05:21:28;29.50;;;9.77;;
70757;SDS011;59316;52.964;7.102;2023-07-22T05:26:50;29.23;;;10.23;;
70757;SDS011;59316;52.964;7.102;2023-07-22T05:32:28;24.92;;;10.32;;
70757;SDS011;59316;52.964;7.102;2023-07-22T05:37:53;22.35;;;8.82;;
70757;SDS011;59316;52.964;7.102;2023-07-22T05:43:15;23.45;;;9.60;;
70757;SDS011;59316;52.964;7.102;2023-07-22T05:48:36;21.08;;;8.90;;
70757;SDS011;59316;52.964;7.102;2023-07-22T05:53:57;21.63;;;8.40;;
70757;SDS011;59316;52.964;7.102;2023-07-22T05:59:18;18.88;;;8.38;;
70757;SDS011;59316;52.964;7.102;2023-07-22T06:04:41;19.65;;;9.43;;
70757;SDS011;59316;52.964;7.102;2023-07-22T06:10:03;17.35;;;9.05;;
70757;SDS011;59316;52.964;7.102;2023-07-22T06:15:25;19.42;;;8.65;;
70757;SDS011;59316;52.964;7.102;2023-07-22T06:20:46;17.85;;;8.10;;
70757;SDS011;59316;52.964;7.102;2023-07-22T06:26:07;17.50;;;8.45;;
70757;SDS011;59316;52.964;7.102;2023-07-22T06:31:29;22.75;;;9.00;;
70757;SDS011;59316;52.964;7.102;2023-07-22T06:36:50;18.85;;;8.65;;
70757;SDS011;59316;52.964;7.102;2023-07-22T06:42:12;17.85;;;8.63;;
70757;SDS011;59316;52.964;7.102;2023-07-22T06:47:33;19.20;;;8.80;;
70757;SDS011;59316;52.964;7.102;2023-07-22T06:52:55;18.58;;;8.80;;
70757;SDS011;59316;52.964;7.102;2023-07-22T06:58:17;19.05;;;8.75;;
70757;SDS011;59316;52.964;7.102;2023-07-22T07:03:41;16.88;;;8.68;;
70757;SDS011;59316;52.964;7.102;2023-07-22T07:09:03;13.90;;;7.72;;
70757;SDS011;59316;52.964;7.102;2023-07-22T07:14:24;12.30;;;7.25;;
70757;SDS011;59316;52.964;7.102;2023-07-22T07:19:45;15.35;;;7.38;;
70757;SDS011;59316;52.964;7.102;2023-07-22T07:25:06;15.02;;;7.65;;
70757;SDS011;59316;52.964;7.102;2023-07-22T07:30:27;13.98;;;7.43;;
70757;SDS011;59316;52.964;7.102;2023-07-22T07:35:49;17.02;;;9.20;;
70757;SDS011;59316;52.964;7.102;2023-07-22T07:41:10;14.35;;;7.82;;
70757;SDS011;59316;52.964;7.102;2023-07-22T07:46:32;16.05;;;8.57;;
70757;SDS011;59316;52.964;7.102;2023-07-22T07:51:53;16.67;;;9.18;;
70757;SDS011;59316;52.964;7.102;2023-07-22T07:57:14;17.77;;;8.77;;
70757;SDS011;59316;52.964;7.102;2023-07-22T08:02:35;17.67;;;9.30;;
70757;SDS011;59316;52.964;7.102;2023-07-22T08:07:57;16.23;;;8.60;;
70757;SDS011;59316;52.964;7.102;2023-07-22T08:13:18;14.95;;;8.95;;
70757;SDS011;59316;52.964;7.102;2023-07-22T08:18:39;13.98;;;8.40;;
70757;SDS011;59316;52.964;7.102;2023-07-22T08:24:01;12.15;;;7.03;;
70757;SDS011;59316;52.964;7.102;2023-07-22T08:29:23;16.50;;;7.95;;
70757;SDS011;59316;52.964;7.102;2023-07-22T08:34:44;17.05;;;8.88;;
70757;SDS011;59316;52.964;7.102;2023-07-22T08:40:06;13.80;;;8.00;;
70757;SDS011;59316;52.964;7.102;2023-07-22T08:45:29;18.57;;;9.50;;
70757;SDS011;59316;52.964;7.102;2023-07-22T08:56:16;16.20;;;9.07;;
70757;SDS011;59316;52.964;7.102;2023-07-22T09:01:38;13.65;;;8.40;;
70757;SDS011;59316;52.964;7.102;2023-07-22T09:07:00;16.95;;;8.32;;
70757;SDS011;59316;52.964;7.102;2023-07-22T09:12:21;13.15;;;7.97;;
70757;SDS011;59316;52.964;7.102;2023-07-22T09:17:43;19.38;;;9.25;;
70757;SDS011;59316;52.964;7.102;2023-07-22T09:23:06;12.73;;;7.75;;
70757;SDS011;59316;52.964;7.102;2023-07-22T09:28:47;12.27;;;7.10;;
70757;SDS011;59316;52.964;7.102;2023-07-22T09:34:17;13.75;;;7.30;;
70757;SDS011;59316;52.964;7.102;2023-07-22T09:39:39;10.95;;;6.10;;
70757;SDS011;59316;52.964;7.102;2023-07-22T09:45:08;10.98;;;6.00;;
70757;SDS011;59316;52.964;7.102;2023-07-22T09:50:30;8.35;;;5.32;;
70757;SDS011;59316;52.964;7.102;2023-07-22T09:55:52;9.88;;;5.13;;
70757;SDS011;59316;52.964;7.102;2023-07-22T10:01:13;7.43;;;5.25;;
70757;SDS011;59316;52.964;7.102;2023-07-22T10:06:44;8.40;;;4.50;;
70757;SDS011;59316;52.964;7.102;2023-07-22T10:12:06;7.95;;;4.10;;
70757;SDS011;59316;52.964;7.102;2023-07-22T10:17:28;6.78;;;3.97;;
70757;SDS011;59316;52.964;7.102;2023-07-22T10:22:50;5.95;;;3.42;;
70757;SDS011;59316;52.964;7.102;2023-07-22T10:28:12;5.63;;;3.60;;
70757;SDS011;59316;52.964;7.102;2023-07-22T10:33:34;5.88;;;3.50;;
70757;SDS011;59316;52.964;7.102;2023-07-22T10:38:56;6.03;;;3.30;;
70757;SDS011;59316;52.964;7.102;2023-07-22T10:44:25;6.20;;;3.60;;
70757;SDS011;59316;52.964;7.102;2023-07-22T10:49:47;6.30;;;3.00;;
70757;SDS011;59316;52.964;7.102;2023-07-22T10:55:18;4.65;;;2.78;;
70757;SDS011;59316;52.964;7.102;2023-07-22T11:00:39;5.65;;;3.20;;
70757;SDS011;59316;52.964;7.102;2023-07-22T11:06:02;4.13;;;3.20;;
70757;SDS011;59316;52.964;7.102;2023-07-22T11:11:35;4.93;;;3.00;;
70757;SDS011;59316;52.964;7.102;2023-07-22T11:17:00;6.95;;;3.53;;
70757;SDS011;59316;52.964;7.102;2023-07-22T11:22:24;5.55;;;3.47;;
70757;SDS011;59316;52.964;7.102;2023-07-22T11:27:45;6.90;;;4.50;;
70757;SDS011;59316;52.964;7.102;2023-07-22T11:33:06;7.07;;;4.57;;
70757;SDS011;59316;52.964;7.102;2023-07-22T11:38:28;8.82;;;5.32;;
70757;SDS011;59316;52.964;7.102;2023-07-22T11:43:49;8.48;;;4.82;;
70757;SDS011;59316;52.964;7.102;2023-07-22T11:49:10;11.98;;;6.25;;
70757;SDS011;59316;52.964;7.102;2023-07-22T11:54:32;9.65;;;5.45;;
70757;SDS011;59316;52.964;7.102;2023-07-22T11:59:56;9.55;;;6.30;;
70757;SDS011;59316;52.964;7.102;2023-07-22T12:05:21;9.25;;;5.72;;
70757;SDS011;59316;52.964;7.102;2023-07-22T12:10:43;12.70;;;6.18;;
70757;SDS011;59316;52.964;7.102;2023-07-22T12:16:05;13.20;;;6.90;;
70757;SDS011;59316;52.964;7.102;2023-07-22T12:21:27;12.98;;;6.03;;
70757;SDS011;59316;52.964;7.102;2023-07-22T12:26:48;12.57;;;6.90;;
70757;SDS011;59316;52.964;7.102;2023-07-22T12:32:10;12.73;;;7.30;;
70757;SDS011;59316;52.964;7.102;2023-07-22T12:37:31;11.20;;;7.35;;
70757;SDS011;59316;52.964;7.102;2023-07-22T12:42:52;10.15;;;6.45;;
70757;SDS011;59316;52.964;7.102;2023-07-22T12:48:14;6.63;;;4.20;;
70757;SDS011;59316;52.964;7.102;2023-07-22T12:53:38;6.22;;;4.72;;
70757;SDS011;59316;52.964;7.102;2023-07-22T12:58:59;7.05;;;5.10;;
70757;SDS011;59316;52.964;7.102;2023-07-22T13:04:21;9.13;;;5.13;;
70757;SDS011;59316;52.964;7.102;2023-07-22T13:09:42;8.23;;;5.15;;
70757;SDS011;59316;52.964;7.102;2023-07-22T13:15:04;7.65;;;5.32;;
70757;SDS011;59316;52.964;7.102;2023-07-22T13:20:25;8.07;;;5.22;;
70757;SDS011;59316;52.964;7.102;2023-07-22T13:25:47;9.52;;;6.43;;
70757;SDS011;59316;52.964;7.102;2023-07-22T13:31:08;10.13;;;6.93;;
70757;SDS011;59316;52.964;7.102;2023-07-22T13:36:30;9.10;;;6.05;;
70757;SDS011;59316;52.964;7.102;2023-07-22T13:41:51;9.73;;;5.97;;
70757;SDS011;59316;52.964;7.102;2023-07-22T13:47:13;8.10;;;4.78;;
70757;SDS011;59316;52.964;7.102;2023-07-22T13:52:34;7.70;;;4.90;;
70757;SDS011;59316;52.964;7.102;2023-07-22T13:57:55;8.52;;;5.15;;
70757;SDS011;59316;52.964;7.102;2023-07-22T14:03:16;9.18;;;5.78;;
70757;SDS011;59316;52.964;7.102;2023-07-22T14:08:38;7.30;;;5.35;;
70757;SDS011;59316;52.964;7.102;2023-07-22T14:14:00;6.93;;;5.30;;
70757;SDS011;59316;52.964;7.102;2023-07-22T14:19:21;8.05;;;5.57;;
70757;SDS011;59316;52.964;7.102;2023-07-22T14:24:43;8.38;;;5.85;;
70757;SDS011;59316;52.964;7.102;2023-07-22T14:30:05;7.32;;;5.85;;
70757;SDS011;59316;52.964;7.102;2023-07-22T14:35:27;10.13;;;6.13;;
70757;SDS011;59316;52.964;7.102;2023-07-22T14:40:49;9.48;;;6.50;;
70757;SDS011;59316;52.964;7.102;2023-07-22T14:46:10;8.15;;;6.50;;
70757;SDS011;59316;52.964;7.102;2023-07-22T14:51:31;10.15;;;6.97;;
70757;SDS011;59316;52.964;7.102;2023-07-22T14:56:53;10.23;;;7.07;;
70757;SDS011;59316;52.964;7.102;2023-07-22T15:02:14;11.52;;;8.07;;
70757;SDS011;59316;52.964;7.102;2023-07-22T15:07:36;12.73;;;8.40;;
70757;SDS011;59316;52.964;7.102;2023-07-22T15:12:57;15.77;;;9.40;;
70757;SDS011;59316;52.964;7.102;2023-07-22T15:18:18;14.18;;;9.52;;
70757;SDS011;59316;52.964;7.102;2023-07-22T15:23:39;14.35;;;10.27;;
70757;SDS011;59316;52.964;7.102;2023-07-22T15:29:01;17.80;;;11.38;;
70757;SDS011;59316;52.964;7.102;2023-07-22T15:34:22;16.05;;;10.82;;
70757;SDS011;59316;52.964;7.102;2023-07-22T15:39:43;17.13;;;11.27;;
70757;SDS011;59316;52.964;7.102;2023-07-22T15:45:11;18.20;;;11.27;;
70757;SDS011;59316;52.964;7.102;2023-07-22T15:50:33;16.90;;;11.43;;
70757;SDS011;59316;52.964;7.102;2023-07-22T15:55:54;19.33;;;12.00;;
70757;SDS011;59316;52.964;7.102;2023-07-22T16:01:15;21.17;;;13.00;;
70757;SDS011;59316;52.964;7.102;2023-07-22T16:06:37;22.75;;;13.40;;
70757;SDS011;59316;52.964;7.102;2023-07-22T16:11:58;24.15;;;13.95;;
70757;SDS011;59316;52.964;7.102;2023-07-22T16:17:20;18.23;;;13.10;;
70757;SDS011;59316;52.964;7.102;2023-07-22T16:22:42;21.65;;;13.65;;
70757;SDS011;59316;52.964;7.102;2023-07-22T16:28:03;25.20;;;14.70;;
70757;SDS011;59316;52.964;7.102;2023-07-22T16:33:24;22.60;;;14.40;;
70757;SDS011;59316;52.964;7.102;2023-07-22T16:38:46;25.33;;;13.20;;
70757;SDS011;59316;52.964;7.102;2023-07-22T16:44:07;21.58;;;12.70;;
70757;SDS011;59316;52.964;7.102;2023-07-22T16:49:28;19.02;;;12.48;;
70757;SDS011;59316;52.964;7.102;2023-07-22T16:54:50;21.00;;;12.95;;
70757;SDS011;59316;52.964;7.102;2023-07-22T17:00:11;20.75;;;13.52;;
70757;SDS011;59316;52.964;7.102;2023-07-22T17:05:33;20.92;;;13.90;;
70757;SDS011;59316;52.964;7.102;2023-07-22T17:10:54;18.10;;;12.18;;
70757;SDS011;59316;52.964;7.102;2023-07-22T17:16:15;17.42;;;12.50;;
70757;SDS011;59316;52.964;7.102;2023-07-22T17:21:37;17.50;;;12.63;;
70757;SDS011;59316;52.964;7.102;2023-07-22T17:26:58;16.13;;;11.60;;
70757;SDS011;59316;52.964;7.102;2023-07-22T17:32:19;20.67;;;12.90;;
70757;SDS011;59316;52.964;7.102;2023-07-22T17:37:41;17.75;;;11.93;;
70757;SDS011;59316;52.964;7.102;2023-07-22T17:43:02;21.52;;;11.93;;
70757;SDS011;59316;52.964;7.102;2023-07-22T17:48:24;18.55;;;11.70;;
70757;SDS011;59316;52.964;7.102;2023-07-22T17:53:45;15.65;;;10.45;;
70757;SDS011;59316;52.964;7.102;2023-07-22T17:59:06;17.23;;;10.50;;
70757;SDS011;59316;52.964;7.102;2023-07-22T18:04:28;20.58;;;11.00;;
70757;SDS011;59316;52.964;7.102;2023-07-22T18:09:49;16.73;;;10.45;;
70757;SDS011;59316;52.964;7.102;2023-07-22T18:15:11;17.33;;;9.98;;
70757;SDS011;59316;52.964;7.102;2023-07-22T18:20:33;17.55;;;10.10;;
70757;SDS011;59316;52.964;7.102;2023-07-22T18:25:55;16.10;;;9.50;;
70757;SDS011;59316;52.964;7.102;2023-07-22T18:31:16;14.82;;;10.50;;
70757;SDS011;59316;52.964;7.102;2023-07-22T18:36:38;14.45;;;8.88;;
70757;SDS011;59316;52.964;7.102;2023-07-22T18:41:59;15.35;;;9.98;;
70757;SDS011;59316;52.964;7.102;2023-07-22T18:47:22;18.88;;;10.75;;
70757;SDS011;59316;52.964;7.102;2023-07-22T18:52:44;18.53;;;11.53;;
70757;SDS011;59316;52.964;7.102;2023-07-22T18:58:05;21.70;;;11.05;;
70757;SDS011;59316;52.964;7.102;2023-07-22T19:03:26;18.35;;;11.35;;
70757;SDS011;59316;52.964;7.102;2023-07-22T19:08:48;19.60;;;12.27;;
70757;SDS011;59316;52.964;7.102;2023-07-22T19:14:09;22.98;;;12.20;;
70757;SDS011;59316;52.964;7.102;2023-07-22T19:19:31;20.25;;;13.38;;
70757;SDS011;59316;52.964;7.102;2023-07-22T19:24:52;20.90;;;12.65;;
70757;SDS011;59316;52.964;7.102;2023-07-22T19:30:14;16.58;;;10.88;;
70757;SDS011;59316;52.964;7.102;2023-07-22T19:35:35;21.67;;;12.75;;
70757;SDS011;59316;52.964;7.102;2023-07-22T19:46:28;26.75;;;15.30;;
70757;SDS011;59316;52.964;7.102;2023-07-22T19:51:50;30.27;;;15.90;;
70757;SDS011;59316;52.964;7.102;2023-07-22T19:57:21;28.52;;;16.17;;
70757;SDS011;59316;52.964;7.102;2023-07-22T20:08:04;26.30;;;15.30;;
70757;SDS011;59316;52.964;7.102;2023-07-22T20:13:25;26.60;;;15.82;;
70757;SDS011;59316;52.964;7.102;2023-07-22T20:18:47;24.92;;;14.48;;
70757;SDS011;59316;52.964;7.102;2023-07-22T20:24:08;24.65;;;15.18;;
70757;SDS011;59316;52.964;7.102;2023-07-22T20:29:29;22.83;;;14.13;;
70757;SDS011;59316;52.964;7.102;2023-07-22T20:34:51;23.33;;;14.48;;
70757;SDS011;59316;52.964;7.102;2023-07-22T20:40:12;28.60;;;16.23;;
70757;SDS011;59316;52.964;7.102;2023-07-22T20:45:34;31.52;;;14.98;;
70757;SDS011;59316;52.964;7.102;2023-07-22T20:51:01;29.75;;;15.15;;
70757;SDS011;59316;52.964;7.102;2023-07-22T20:56:22;31.60;;;16.40;;
70757;SDS011;59316;52.964;7.102;2023-07-22T21:01:47;27.05;;;15.80;;
70757;SDS011;59316;52.964;7.102;2023-07-22T21:07:08;27.10;;;14.88;;
70757;SDS011;59316;52.964;7.102;2023-07-22T21:12:30;28.55;;;14.43;;
70757;SDS011;59316;52.964;7.102;2023-07-22T21:17:51;24.02;;;15.10;;
70757;SDS011;59316;52.964;7.102;2023-07-22T21:23:13;25.48;;;15.57;;
70757;SDS011;59316;52.964;7.102;2023-07-22T21:28:34;24.65;;;14.95;;
70757;SDS011;59316;52.964;7.102;2023-07-22T21:33:55;27.52;;;16.35;;
70757;SDS011;59316;52.964;7.102;2023-07-22T21:39:32;27.30;;;15.48;;
70757;SDS011;59316;52.964;7.102;2023-07-22T21:44:53;27.80;;;15.77;;
70757;SDS011;59316;52.964;7.102;2023-07-22T21:50:14;29.55;;;16.77;;
70757;SDS011;59316;52.964;7.102;2023-07-22T21:55:36;27.55;;;16.10;;
70757;SDS011;59316;52.964;7.102;2023-07-22T22:00:57;31.35;;;15.43;;
70757;SDS011;59316;52.964;7.102;2023-07-22T22:06:19;25.58;;;15.25;;
70757;SDS011;59316;52.964;7.102;2023-07-22T22:11:40;25.23;;;14.82;;
70757;SDS011;59316;52.964;7.102;2023-07-22T22:17:01;25.52;;;14.75;;
70757;SDS011;59316;52.964;7.102;2023-07-22T22:22:23;25.65;;;14.57;;
70757;SDS011;59316;52.964;7.102;2023-07-22T22:27:44;27.65;;;14.05;;
70757;SDS011;59316;52.964;7.102;2023-07-22T22:33:06;25.17;;;14.13;;
70757;SDS011;59316;52.964;7.102;2023-07-22T22:38:27;25.58;;;15.07;;
70757;SDS011;59316;52.964;7.102;2023-07-22T22:43:48;28.15;;;15.40;;
70757;SDS011;59316;52.964;7.102;2023-07-22T22:49:09;24.85;;;14.35;;
70757;SDS011;59316;52.964;7.102;2023-07-22T22:54:30;28.00;;;14.95;;
70757;SDS011;59316;52.964;7.102;2023-07-22T22:59:52;22.38;;;13.18;;
70757;SDS011;59316;52.964;7.102;2023-07-22T23:05:13;26.00;;;11.10;;
70757;SDS011;59316;52.964;7.102;2023-07-22T23:10:34;15.77;;;9.48;;
70757;SDS011;59316;52.964;7.102;2023-07-22T23:15:56;16.15;;;8.20;;
70757;SDS011;59316;52.964;7.102;2023-07-22T23:21:17;12.20;;;6.55;;
70757;SDS011;59316;52.964;7.102;2023-07-22T23:26:38;11.32;;;6.28;;
70757;SDS011;59316;52.964;7.102;2023-07-22T23:32:00;13.77;;;5.95;;
70757;SDS011;59316;52.964;7.102;2023-07-22T23:37:21;12.00;;;5.60;;
70757;SDS011;59316;52.964;7.102;2023-07-22T23:42:43;11.55;;;5.78;;
70757;SDS011;59316;52.964;7.102;2023-07-22T23:48:04;10.82;;;5.63;;
70757;SDS011;59316;52.964;7.102;2023-07-22T23:53:25;13.13;;;6.43;;
70757;SDS011;59316;52.964;7.102;2023-07-22T23:58:46;10.27;;;6.20;;
